Time;durP1;ratioP1;P1;durP2;ratioP2;P2;SDS_P1;SDS_P2;PMS_P1;PMS_P2;Temp;Humidity;BMP_temperature;BMP_pressure;BME280_temperature;BME280_humidity;BME280_pressure;Samples;Min_cycle;Max_cycle;Signal;HPM_P1;HPM_P2
2023/03/11 00:02:25;;;;;;;2.40;1.80;;;;;;;9.11;74.42;96194.96;218946;1296;22620;-76
2023/03/11 00:07:28;;;;;;;3.80;1.50;;;;;;;9.03;74.57;96188.05;218545;1295;24216;-77
2023/03/11 00:12:31;;;;;;;1.80;1.40;;;;;;;8.95;74.83;96184.55;218635;1296;22557;-76
2023/03/11 00:17:34;;;;;;;1.90;1.40;;;;;;;8.82;75.12;96173.73;218721;1296;22728;-76
2023/03/11 00:22:37;;;;;;;1.20;1.10;;;;;;;8.70;75.39;96182.14;218883;1296;22564;-77
2023/03/11 00:27:39;;;;;;;1.30;1.20;;;;;;;8.62;75.06;96179.69;218797;1296;22546;-76
2023/03/11 00:32:42;;;;;;;1.60;1.10;;;;;;;8.58;75.40;96176.48;218750;1296;24299;-77
2023/03/11 00:37:47;;;;;;;1.00;0.70;;;;;;;8.52;75.40;96175.00;218526;1295;22568;-77
2023/03/11 00:42:52;;;;;;;1.00;0.90;;;;;;;8.45;75.00;96176.48;218883;1292;22545;-77
2023/03/11 00:47:55;;;;;;;0.90;0.80;;;;;;;8.40;75.15;96177.51;218537;1296;25410;-77
2023/03/11 00:53:17;;;;;;;0.50;0.50;;;;;;;8.34;75.40;96180.70;218903;1296;22540;-77
2023/03/11 00:58:21;;;;;;;0.70;0.60;;;;;;;8.32;75.09;96178.08;218747;1296;22682;-76
2023/03/11 01:03:27;;;;;;;0.70;0.40;;;;;;;8.30;75.03;96183.36;218586;1296;22542;-77
2023/03/11 01:08:30;;;;;;;0.70;0.50;;;;;;;8.29;74.51;96185.13;218514;1296;25532;-76
2023/03/11 01:13:33;;;;;;;0.50;0.50;;;;;;;8.25;74.41;96189.31;218702;1289;25261;-78
2023/03/11 01:18:35;;;;;;;0.90;0.50;;;;;;;8.21;74.06;96186.09;218840;1289;22541;-77
2023/03/11 01:23:39;;;;;;;0.80;0.60;;;;;;;8.14;74.28;96189.03;218675;1295;22567;-78
2023/03/11 01:28:41;;;;;;;0.40;0.40;;;;;;;8.09;74.04;96191.73;218616;1292;22551;-77
2023/03/11 01:33:43;;;;;;;1.50;0.50;;;;;;;8.05;74.23;96187.91;218715;1289;22539;-77
2023/03/11 01:38:46;;;;;;;0.80;0.60;;;;;;;8.05;73.78;96184.38;218878;1295;22546;-77
2023/03/11 01:43:53;;;;;;;0.60;0.50;;;;;;;8.04;73.36;96180.79;218641;1296;22542;-77
2023/03/11 01:48:59;;;;;;;;;;;;;;;8.03;73.47;96175.83;218544;1296;25490;-77
2023/03/11 01:54:20;;;;;;;0.90;0.70;;;;;;;8.03;73.09;96176.35;218608;1286;22656;-76
2023/03/11 01:59:27;;;;;;;0.70;0.60;;;;;;;8.05;72.99;96186.69;218676;1289;22542;-78
2023/03/11 02:04:33;;;;;;;0.70;0.70;;;;;;;8.04;72.75;96173.90;218819;1296;24330;-76
2023/03/11 02:09:36;;;;;;;0.60;0.60;;;;;;;8.02;71.77;96174.81;218721;1296;24339;-77
2023/03/11 02:14:43;;;;;;;1.30;0.80;;;;;;;7.97;71.14;96176.46;218494;1295;22557;-76
2023/03/11 02:20:05;;;;;;;1.40;0.90;;;;;;;7.90;70.83;96172.43;218833;1296;22873;-77
2023/03/11 02:25:28;;;;;;;1.60;0.80;;;;;;;7.84;70.94;96175.08;218498;1293;22531;-77
2023/03/11 02:30:33;;;;;;;0.50;0.50;;;;;;;7.76;70.15;96173.50;218775;1296;22556;-76
2023/03/11 02:35:35;;;;;;;1.00;0.50;;;;;;;7.66;70.23;96179.19;218446;1295;22705;-76
2023/03/11 02:40:47;;;;;;;2.10;0.60;;;;;;;7.55;70.19;96180.08;218265;1295;22704;-79
2023/03/11 02:45:51;;;;;;;2.00;1.00;;;;;;;7.48;71.04;96197.52;218690;1296;22682;-76
2023/03/11 02:50:53;;;;;;;2.50;0.80;;;;;;;7.39;71.27;96202.25;218743;1296;22749;-76
2023/03/11 02:55:56;;;;;;;0.80;0.60;;;;;;;7.32;71.49;96199.40;218723;1296;22550;-77
2023/03/11 03:00:58;;;;;;;1.50;0.70;;;;;;;7.24;71.47;96198.04;218506;1290;22678;-79
2023/03/11 03:06:01;;;;;;;1.70;0.80;;;;;;;7.13;71.81;96198.79;218607;1295;22543;-76
2023/03/11 03:11:03;;;;;;;1.00;0.70;;;;;;;7.00;72.06;96198.13;218788;1296;23012;-77
2023/03/11 03:16:06;;;;;;;1.40;0.80;;;;;;;6.86;72.14;96197.40;218489;1296;22627;-77
2023/03/11 03:21:09;;;;;;;1.00;0.70;;;;;;;6.74;72.58;96199.66;218756;1289;25587;-76
2023/03/11 03:26:13;;;;;;;2.80;1.00;;;;;;;6.62;73.01;96198.36;218912;1292;22589;-77
2023/03/11 03:31:16;;;;;;;1.90;1.00;;;;;;;6.50;73.34;96200.91;218300;1296;22683;-76
2023/03/11 03:36:20;;;;;;;1.10;0.80;;;;;;;6.37;73.41;96209.24;218831;1289;22558;-76
2023/03/11 03:41:28;;;;;;;1.10;0.80;;;;;;;6.24;73.56;96213.23;218765;1295;22542;-76
2023/03/11 03:46:31;;;;;;;0.70;0.70;;;;;;;6.08;74.55;96214.66;218817;1296;22591;-76
2023/03/11 03:51:34;;;;;;;0.90;0.80;;;;;;;5.90;74.75;96224.23;218683;1296;22549;-77
2023/03/11 03:56:42;;;;;;;1.60;0.90;;;;;;;5.77;75.30;96229.83;218943;1296;24346;-76
2023/03/11 04:01:45;;;;;;;1.10;0.70;;;;;;;5.65;75.99;96226.02;218557;1295;25376;-76
2023/03/11 04:06:49;;;;;;;1.00;0.80;;;;;;;5.46;76.72;96223.25;218888;1293;22557;-77
2023/03/11 04:11:52;;;;;;;1.30;0.80;;;;;;;5.30;77.32;96214.81;218599;1296;24250;-77
2023/03/11 04:16:56;;;;;;;1.00;0.90;;;;;;;5.12;78.15;96217.81;218690;1296;24325;-77
2023/03/11 04:22:00;;;;;;;0.80;0.70;;;;;;;4.99;78.56;96218.27;218434;1292;24272;-76
2023/03/11 04:27:03;;;;;;;0.90;0.70;;;;;;;4.87;78.70;96217.05;218383;1296;22542;-76
2023/03/11 04:32:07;;;;;;;1.70;0.80;;;;;;;4.73;78.86;96219.50;218840;1290;22573;-79
2023/03/11 04:37:11;;;;;;;2.20;0.60;;;;;;;4.57;80.04;96217.10;218583;1296;22540;-76
2023/03/11 04:42:14;;;;;;;0.70;0.60;;;;;;;4.39;80.43;96214.51;218513;1293;24228;-77
2023/03/11 04:47:16;;;;;;;0.60;0.60;;;;;;;4.28;80.55;96218.20;218667;1292;25446;-77
2023/03/11 04:52:18;;;;;;;0.80;0.80;;;;;;;4.19;80.65;96224.20;218649;1296;22545;-78
2023/03/11 04:57:24;;;;;;;0.80;0.80;;;;;;;4.14;80.72;96239.41;218614;1295;22636;-76
2023/03/11 05:02:26;;;;;;;1.50;0.60;;;;;;;4.10;80.78;96251.20;218914;1293;24250;-76
2023/03/11 05:07:33;;;;;;;0.60;0.50;;;;;;;4.01;80.99;96271.94;218819;1296;22726;-77
2023/03/11 05:12:36;;;;;;;0.50;0.50;;;;;;;3.78;81.10;96287.30;218775;1296;22966;-77
2023/03/11 05:17:39;;;;;;;0.60;0.60;;;;;;;3.52;81.46;96303.28;218559;1292;22543;-77
2023/03/11 05:22:42;;;;;;;0.40;0.40;;;;;;;3.27;82.02;96309.55;218456;1296;22546;-76
2023/03/11 05:27:48;;;;;;;0.60;0.50;;;;;;;3.02;82.43;96314.76;218752;1290;22547;-75
2023/03/11 05:32:55;;;;;;;0.50;0.50;;;;;;;2.86;82.67;96315.98;218469;1296;22549;-76
2023/03/11 05:38:04;;;;;;;0.60;0.60;;;;;;;2.75;83.10;96325.09;218795;1293;22553;-77
2023/03/11 05:43:11;;;;;;;0.60;0.60;;;;;;;2.66;83.41;96339.48;218476;1289;22236;-77
2023/03/11 05:48:16;;;;;;;0.70;0.70;;;;;;;2.60;83.43;96356.31;218476;1292;22546;-76
2023/03/11 05:53:24;;;;;;;0.80;0.80;;;;;;;2.47;83.21;96368.64;218316;1297;22558;-76
2023/03/11 05:58:31;;;;;;;1.10;1.00;;;;;;;2.29;83.04;96374.12;218373;1295;22669;-78
2023/03/11 06:03:34;;;;;;;1.70;1.40;;;;;;;2.09;82.96;96386.58;218938;1277;25338;-76
2023/03/11 06:08:44;;;;;;;1.20;1.10;;;;;;;1.88;83.20;96401.09;218555;1295;23103;-79
2023/03/11 06:13:47;;;;;;;1.10;1.00;;;;;;;1.69;83.31;96403.26;218636;1296;22616;-76
2023/03/11 06:18:51;;;;;;;1.10;1.10;;;;;;;1.64;83.43;96408.15;218704;1296;25367;-78
2023/03/11 06:23:53;;;;;;;1.30;1.20;;;;;;;1.57;83.58;96419.69;218844;1292;22550;-78
2023/03/11 06:28:57;;;;;;;1.10;1.00;;;;;;;1.53;83.78;96428.53;218772;1295;25555;-77
2023/03/11 06:34:00;;;;;;;0.90;0.90;;;;;;;1.50;83.73;96438.02;218474;1296;23791;-78
2023/03/11 06:39:04;;;;;;;1.00;1.00;;;;;;;1.46;83.79;96442.23;218425;1289;23971;-77
2023/03/11 06:44:10;;;;;;;1.00;1.00;;;;;;;1.41;84.00;96445.58;218577;1293;24317;-79
2023/03/11 06:49:13;;;;;;;1.20;1.20;;;;;;;1.40;84.27;96446.61;218533;1293;22546;-77
2023/03/11 06:54:16;;;;;;;1.50;1.40;;;;;;;1.44;84.68;96456.61;218132;1296;24441;-77
2023/03/11 06:59:19;;;;;;;1.50;1.40;;;;;;;1.44;84.80;96465.94;218311;1297;22545;-77
2023/03/11 07:04:22;;;;;;;1.70;1.60;;;;;;;1.45;84.64;96477.60;218672;1280;23786;-78
2023/03/11 07:09:28;;;;;;;2.00;1.40;;;;;;;1.48;84.53;96482.85;218686;1297;22544;-79
2023/03/11 07:14:31;;;;;;;2.10;1.90;;;;;;;1.45;84.84;96491.29;218756;1289;25437;-77
2023/03/11 07:19:34;;;;;;;2.40;2.10;;;;;;;1.39;84.71;96501.38;218726;1293;25552;-75
2023/03/11 07:24:36;;;;;;;1.70;1.60;;;;;;;1.37;84.56;96506.31;218500;1289;25401;-77
2023/03/11 07:29:41;;;;;;;2.00;1.70;;;;;;;1.37;85.96;96504.69;218743;1297;22779;-77
2023/03/11 07:34:44;;;;;;;1.80;1.60;;;;;;;1.46;86.42;96523.59;218343;1295;23108;-77
2023/03/11 07:39:46;;;;;;;1.50;1.40;;;;;;;1.56;86.54;96522.52;218701;1280;25429;-77
2023/03/11 07:44:50;;;;;;;2.20;2.00;;;;;;;1.63;86.08;96531.66;218760;1290;23828;-77
2023/03/11 07:49:55;;;;;;;2.20;2.00;;;;;;;1.71;86.01;96540.81;218664;1292;22536;-76
2023/03/11 07:54:58;;;;;;;2.80;1.70;;;;;;;1.76;85.40;96550.44;218362;1293;22553;-76
2023/03/11 08:00:01;;;;;;;2.10;1.90;;;;;;;1.79;85.13;96556.02;218903;1289;26419;-76
2023/03/11 08:05:12;;;;;;;2.40;2.00;;;;;;;1.80;85.22;96565.76;219053;1286;22547;-77
2023/03/11 08:10:14;;;;;;;2.70;2.50;;;;;;;1.76;84.92;96568.98;218682;1289;22543;-76
2023/03/11 08:15:16;;;;;;;2.70;2.50;;;;;;;1.76;84.84;96574.74;218850;1276;22725;-75
2023/03/11 08:20:24;;;;;;;3.70;3.40;;;;;;;1.71;84.81;96587.34;218578;1291;25431;-78
2023/03/11 08:25:39;;;;;;;3.70;3.40;;;;;;;1.67;84.90;96595.19;219546;1292;25335;-77
2023/03/11 08:30:42;;;;;;;3.60;3.20;;;;;;;1.74;85.04;96609.16;218733;1289;24304;-79
2023/03/11 08:35:47;;;;;;;3.90;3.60;;;;;;;1.80;84.61;96612.09;219585;1296;22447;-79
2023/03/11 08:40:50;;;;;;;4.20;3.90;;;;;;;1.80;84.48;96617.17;218354;1296;22549;-78
2023/03/11 08:45:54;;;;;;;3.40;3.10;;;;;;;1.77;84.46;96626.85;218640;1295;22552;-78
2023/03/11 08:51:00;;;;;;;5.00;4.50;;;;;;;1.63;84.93;96635.44;218819;1297;22686;-78
2023/03/11 08:56:09;;;;;;;4.60;4.20;;;;;;;1.46;84.85;96632.30;218776;1296;25440;-78
2023/03/11 09:01:13;;;;;;;5.70;5.20;;;;;;;1.35;85.10;96644.25;218524;1295;22550;-78
2023/03/11 09:06:17;;;;;;;6.70;6.10;;;;;;;1.25;85.51;96645.19;219146;1297;22591;-78
2023/03/11 09:11:42;;;;;;;6.30;5.70;;;;;;;1.22;85.10;96654.66;219715;1297;26578;-77
2023/03/11 09:16:45;;;;;;;6.00;5.40;;;;;;;1.24;85.31;96667.09;219473;1295;22553;-77
2023/03/11 09:21:48;;;;;;;6.40;5.60;;;;;;;1.23;85.40;96681.89;221262;1290;22763;-76
2023/03/11 09:26:54;;;;;;;5.60;5.10;;;;;;;1.25;85.88;96689.98;218889;1295;22578;-76
2023/03/11 09:31:59;;;;;;;8.10;7.20;;;;;;;1.32;86.01;96690.97;218441;1289;24218;-76
2023/03/11 09:37:03;;;;;;;7.00;6.30;;;;;;;1.31;85.51;96697.64;218554;1296;25168;-76
2023/03/11 09:42:30;;;;;;;6.80;5.70;;;;;;;1.27;85.54;96715.11;219063;1294;22680;-76
2023/03/11 09:47:59;;;;;;;6.80;6.10;;;;;;;1.21;85.94;96720.18;218943;1289;25254;-77
2023/03/11 09:53:10;;;;;;;6.20;5.60;;;;;;;1.19;85.94;96732.01;218886;1282;22872;-76
2023/03/11 09:58:21;;;;;;;4.60;4.00;;;;;;;1.18;85.62;96746.09;219048;1290;22595;-75
2023/03/11 10:03:34;;;;;;;3.10;2.80;;;;;;;1.17;86.01;96759.61;218593;1295;24309;-73
2023/03/11 10:08:45;;;;;;;3.30;2.80;;;;;;;1.17;85.99;96768.80;218522;1292;25450;-74
2023/03/11 10:13:56;;;;;;;4.00;2.90;;;;;;;1.16;86.20;96781.04;218614;1293;25264;-74
2023/03/11 10:19:40;;;;;;;2.70;2.40;;;;;;;1.13;86.18;96787.85;218882;1292;22560;-74
2023/03/11 10:25:11;;;;;;;3.20;2.70;;;;;;;1.09;86.00;96808.55;218834;1283;25310;-75
2023/03/11 10:30:35;;;;;;;4.80;3.20;;;;;;;1.11;85.95;96808.83;218736;1297;22575;-76
2023/03/11 10:35:41;;;;;;;4.40;3.10;;;;;;;1.13;86.19;96829.95;218646;1290;22684;-76
2023/03/11 10:40:46;;;;;;;4.10;3.50;;;;;;;1.14;86.17;96844.73;218855;1298;22693;-75
2023/03/11 10:45:52;;;;;;;2.60;2.40;;;;;;;1.15;86.25;96870.47;219031;1297;22715;-76
2023/03/11 10:51:02;;;;;;;3.90;3.30;;;;;;;1.15;86.13;96882.30;218886;1288;22594;-77
2023/03/11 10:56:05;;;;;;;3.50;3.20;;;;;;;1.14;85.87;96891.77;218678;1295;22546;-77
2023/03/11 11:01:16;;;;;;;3.50;3.20;;;;;;;1.14;85.68;96907.14;218294;1298;22543;-77
2023/03/11 11:06:29;;;;;;;3.40;2.60;;;;;;;1.09;86.07;96928.48;218714;1276;22684;-76
2023/03/11 11:11:31;;;;;;;3.90;2.90;;;;;;;0.98;85.91;96944.30;218982;1290;22615;-77
2023/03/11 11:16:34;;;;;;;4.10;3.10;;;;;;;0.92;85.99;96946.35;218753;1295;202658;-77
2023/03/11 11:21:51;;;;;;;3.40;3.00;;;;;;;0.86;86.27;96954.34;218879;1289;22572;-77
2023/03/11 11:27:28;;;;;;;3.30;3.00;;;;;;;0.81;86.63;96983.14;218927;1289;22503;-77
2023/03/11 11:32:33;;;;;;;4.20;3.50;;;;;;;0.76;86.57;96991.47;218850;1289;25160;-78
2023/03/11 11:37:40;;;;;;;2.70;2.40;;;;;;;0.79;86.58;97004.20;218384;1282;25042;-77
2023/03/11 11:42:48;;;;;;;3.00;2.10;;;;;;;0.84;86.02;97015.56;219013;1289;22553;-77
2023/03/11 11:47:59;;;;;;;3.90;2.90;;;;;;;0.87;86.34;97040.60;218670;1290;23800;-77
2023/03/11 11:53:22;;;;;;;3.80;2.40;;;;;;;0.82;86.79;97048.41;218745;1289;22576;-78
2023/03/11 11:58:25;;;;;;;3.10;2.70;;;;;;;0.80;86.87;97060.73;218817;1290;24266;-77
2023/03/11 12:03:44;;;;;;;3.60;2.80;;;;;;;0.78;86.76;97078.96;218849;1290;25277;-76
2023/03/11 12:09:10;;;;;;;5.00;3.90;;;;;;;0.70;87.07;97090.89;218663;1297;22640;-76
2023/03/11 12:14:44;;;;;;;5.60;4.10;;;;;;;0.69;86.84;97094.46;218671;1297;24255;-76
2023/03/11 12:20:17;;;;;;;3.30;2.70;;;;;;;0.69;86.89;97112.98;218701;1290;23373;-76
2023/03/11 12:25:38;;;;;;;;;;;;;;;0.71;86.54;97127.73;218856;1297;22602;-76
2023/03/11 12:30:57;;;;;;;3.60;2.90;;;;;;;0.73;85.90;97131.37;218462;1297;23722;-75
2023/03/11 12:36:00;;;;;;;3.70;2.40;;;;;;;0.74;85.91;97141.75;218431;1293;22578;-75
2023/03/11 12:41:05;;;;;;;3.10;2.60;;;;;;;0.74;85.00;97161.77;218509;1297;22570;-75
2023/03/11 12:46:13;;;;;;;4.40;3.10;;;;;;;0.69;84.96;97166.55;218610;1289;22626;-75
2023/03/11 12:51:26;;;;;;;4.60;3.80;;;;;;;0.65;85.48;97169.89;218266;1297;22645;-76
2023/03/11 12:56:43;;;;;;;5.10;4.00;;;;;;;0.65;85.12;97180.02;218404;1297;24288;-75
2023/03/11 13:02:13;;;;;;;5.10;3.60;;;;;;;0.63;85.49;97191.48;218425;1290;25513;-75
2023/03/11 13:07:35;;;;;;;5.80;4.20;;;;;;;0.60;85.33;97206.39;218339;1297;25336;-75
2023/03/11 13:12:47;;;;;;;6.30;4.50;;;;;;;0.58;85.04;97228.19;218415;1297;22513;-76
2023/03/11 13:18:29;;;;;;;6.30;3.70;;;;;;;0.58;85.27;97248.52;218434;1296;23801;-75
2023/03/11 13:23:37;;;;;;;6.40;4.20;;;;;;;0.57;84.56;97259.40;218521;1296;24258;-76
2023/03/11 13:29:18;;;;;;;4.30;2.90;;;;;;;0.57;84.25;97279.12;218129;1296;22675;-76
2023/03/11 13:34:34;;;;;;;5.50;3.70;;;;;;;0.55;84.22;97286.45;218358;1296;22587;-76
2023/03/11 13:40:22;;;;;;;3.40;2.50;;;;;;;0.54;83.81;97296.69;218666;1297;25442;-76
2023/03/11 13:45:36;;;;;;;4.10;2.80;;;;;;;0.56;83.86;97315.75;218241;1297;22556;-76
2023/03/11 13:51:32;;;;;;;6.00;3.60;;;;;;;0.54;83.91;97324.45;218381;1297;22688;-75
2023/03/11 13:56:43;;;;;;;5.40;3.60;;;;;;;0.56;83.99;97331.55;218272;1297;23816;-76
2023/03/11 14:01:54;;;;;;;6.00;3.70;;;;;;;0.65;84.05;97338.13;218580;1297;22559;-77
2023/03/11 14:06:58;;;;;;;5.50;2.70;;;;;;;0.76;83.30;97368.02;218550;1292;22719;-76
2023/03/11 14:12:09;;;;;;;5.20;3.60;;;;;;;0.87;83.21;97370.99;218718;1295;22549;-75
2023/03/11 14:17:17;;;;;;;5.20;3.70;;;;;;;0.97;82.58;97386.44;218680;1295;24269;-75
2023/03/11 14:22:20;;;;;;;5.50;3.60;;;;;;;1.04;82.83;97393.59;218205;1297;24381;-76
2023/03/11 14:27:23;;;;;;;5.50;4.00;;;;;;;1.10;82.62;97401.88;218659;1296;24387;-76
2023/03/11 14:32:31;;;;;;;5.40;3.60;;;;;;;1.09;82.15;97415.20;218622;1295;24292;-76
2023/03/11 14:37:36;;;;;;;4.00;3.00;;;;;;;1.03;82.22;97414.88;218278;1297;22624;-76
2023/03/11 14:42:42;;;;;;;4.40;3.30;;;;;;;0.96;82.31;97429.52;218778;1289;22569;-76
2023/03/11 14:47:58;;;;;;;5.40;3.80;;;;;;;0.89;82.20;97443.63;218461;1297;22587;-77
2023/03/11 14:53:23;;;;;;;4.30;3.40;;;;;;;0.82;82.38;97457.16;218294;1297;24632;-76
2023/03/11 14:58:51;;;;;;;3.70;3.00;;;;;;;0.76;82.85;97458.12;218491;1297;22549;-76
2023/03/11 15:04:22;;;;;;;5.70;4.10;;;;;;;0.74;83.23;97477.74;218324;1297;24364;-76
2023/03/11 15:09:27;;;;;;;7.40;5.50;;;;;;;0.73;83.44;97478.70;218618;1297;25316;-76
2023/03/11 15:14:35;;;;;;;5.60;4.40;;;;;;;0.70;83.65;97492.02;218630;1294;24425;-76
2023/03/11 15:19:37;;;;;;;8.20;5.60;;;;;;;0.66;83.85;97501.14;218369;1292;22545;-76
2023/03/11 15:24:39;;;;;;;7.80;5.50;;;;;;;0.62;84.23;97505.70;218305;1295;24263;-76
2023/03/11 15:29:51;;;;;;;8.20;6.60;;;;;;;0.59;84.23;97510.16;218486;1297;24328;-76
2023/03/11 15:35:05;;;;;;;12.20;8.20;;;;;;;0.56;84.38;97522.42;218412;1292;23139;-76
2023/03/11 15:40:28;;;;;;;9.70;6.00;;;;;;;0.52;84.49;97529.58;218772;1294;25400;-75
2023/03/11 15:45:56;;;;;;;6.90;5.20;;;;;;;0.38;84.72;97545.36;218238;1294;22549;-76
2023/03/11 15:50:59;;;;;;;9.10;5.70;;;;;;;0.25;84.90;97559.70;218654;1291;22545;-76
2023/03/11 15:56:12;;;;;;;7.20;5.80;;;;;;;0.15;85.23;97571.02;218343;1297;22568;-76
2023/03/11 16:01:17;;;;;;;6.50;4.70;;;;;;;0.10;84.81;97586.77;218652;1297;22560;-76
2023/03/11 16:06:25;;;;;;;;;;;;;;;0.11;84.75;97594.65;218574;1292;25238;-76
2023/03/11 16:11:31;;;;;;;6.10;4.80;;;;;;;0.17;84.61;97603.05;218616;1294;24329;-76
2023/03/11 16:16:33;;;;;;;6.30;4.80;;;;;;;0.23;84.17;97614.09;218083;1297;25391;-75
2023/03/11 16:21:40;;;;;;;7.60;5.20;;;;;;;0.24;84.04;97622.67;218449;1296;26425;-76
2023/03/11 16:26:46;;;;;;;6.80;5.50;;;;;;;0.21;83.78;97634.34;218358;1297;25520;-75
2023/03/11 16:31:48;;;;;;;6.40;5.00;;;;;;;0.18;83.75;97645.18;218850;1295;22630;-76
2023/03/11 16:36:51;;;;;;;6.30;4.20;;;;;;;0.15;83.47;97659.73;218156;1292;22599;-75
2023/03/11 16:41:54;;;;;;;5.50;3.60;;;;;;;0.12;82.63;97678.35;218369;1297;22557;-76
2023/03/11 16:46:56;;;;;;;6.10;3.60;;;;;;;0.09;82.19;97682.31;218537;1297;22630;-76
2023/03/11 16:51:58;;;;;;;4.90;3.70;;;;;;;0.06;81.98;97693.70;218511;1292;22674;-76
2023/03/11 16:57:01;;;;;;;6.20;4.60;;;;;;;0.02;81.82;97707.91;218717;1297;22561;-76
2023/03/11 17:02:05;;;;;;;5.20;4.30;;;;;;;-0.03;81.68;97721.46;218751;1297;22781;-76
2023/03/11 17:07:09;;;;;;;6.20;4.60;;;;;;;-0.06;81.65;97729.73;218728;1289;25513;-78
2023/03/11 17:12:14;;;;;;;5.70;3.90;;;;;;;-0.07;81.62;97742.88;218484;1297;24437;-76
2023/03/11 17:17:18;;;;;;;4.40;3.40;;;;;;;-0.09;81.15;97758.83;218390;1295;24250;-77
2023/03/11 17:22:21;;;;;;;6.30;4.30;;;;;;;-0.12;80.91;97766.67;218623;1297;23810;-76
2023/03/11 17:27:31;;;;;;;7.30;4.50;;;;;;;-0.13;80.96;97787.85;218563;1297;22577;-75
2023/03/11 17:32:34;;;;;;;6.60;4.60;;;;;;;-0.14;81.11;97789.42;218490;1290;22693;-76
2023/03/11 17:37:37;;;;;;;6.50;4.80;;;;;;;-0.17;80.69;97795.05;218313;1279;24369;-77
2023/03/11 17:42:40;;;;;;;7.20;4.60;;;;;;;-0.18;81.24;97812.30;218427;1295;22548;-77
2023/03/11 17:47:43;;;;;;;6.80;4.00;;;;;;;-0.19;80.69;97813.80;218237;1297;22571;-76
2023/03/11 17:52:46;;;;;;;7.40;4.60;;;;;;;-0.23;80.73;97818.44;218400;1292;25655;-76
2023/03/11 17:57:51;;;;;;;7.30;4.70;;;;;;;-0.24;80.74;97831.34;218568;1295;24243;-76
2023/03/11 18:02:57;;;;;;;6.00;5.00;;;;;;;-0.24;80.43;97841.41;218490;1292;22614;-77
2023/03/11 18:07:59;;;;;;;9.50;5.80;;;;;;;-0.24;80.47;97857.66;218332;1292;22542;-77
2023/03/11 18:13:02;;;;;;;8.90;5.40;;;;;;;-0.25;80.15;97872.31;218639;1293;22553;-76
2023/03/11 18:18:13;;;;;;;8.50;6.40;;;;;;;-0.25;80.29;97879.05;218349;1297;22561;-77
2023/03/11 18:23:23;;;;;;;9.70;6.00;;;;;;;-0.25;80.26;97888.21;218318;1297;23836;-76
2023/03/11 18:28:28;;;;;;;9.20;5.70;;;;;;;-0.24;80.31;97897.58;218326;1297;22638;-76
2023/03/11 18:33:31;;;;;;;9.00;5.30;;;;;;;-0.23;80.28;97908.39;218645;1290;22645;-76
2023/03/11 18:38:34;;;;;;;9.30;6.20;;;;;;;-0.21;80.30;97914.29;218245;1297;22604;-76
2023/03/11 18:43:40;;;;;;;8.40;5.10;;;;;;;-0.21;80.58;97913.39;218430;1297;24416;-77
2023/03/11 18:48:45;;;;;;;9.30;6.30;;;;;;;-0.20;80.22;97920.14;218397;1283;25357;-77
2023/03/11 18:53:53;;;;;;;9.10;6.50;;;;;;;-0.21;80.07;97927.95;218688;1289;22546;-77
2023/03/11 18:59:00;;;;;;;8.30;6.40;;;;;;;-0.22;79.91;97935.82;218447;1297;26428;-77
2023/03/11 19:04:02;;;;;;;7.10;5.40;;;;;;;-0.21;79.66;97945.09;218899;1295;27934;-77
2023/03/11 19:09:05;;;;;;;7.50;5.90;;;;;;;-0.18;79.82;97947.27;218380;1292;22490;-76
2023/03/11 19:14:08;;;;;;;7.80;5.10;;;;;;;-0.15;79.43;97955.33;218303;1295;22552;-79
2023/03/11 19:19:11;;;;;;;7.30;5.10;;;;;;;-0.13;79.15;97961.14;218370;1297;25373;-77
2023/03/11 19:24:14;;;;;;;6.90;5.20;;;;;;;-0.11;79.11;97966.65;218631;1279;22535;-76
2023/03/11 19:29:17;;;;;;;8.00;6.00;;;;;;;-0.08;78.93;97971.55;218084;1296;25487;-76
2023/03/11 19:34:27;;;;;;;10.00;6.10;;;;;;;-0.06;78.98;97980.17;218346;1297;22548;-76
2023/03/11 19:39:30;;;;;;;10.00;7.70;;;;;;;-0.04;79.39;97989.05;218499;1293;22581;-76
2023/03/11 19:44:33;;;;;;;11.90;9.50;;;;;;;-0.05;79.39;97984.99;218410;1295;22546;-77
2023/03/11 19:49:35;;;;;;;15.90;10.20;;;;;;;-0.05;79.57;97984.64;218002;1297;25268;-77
2023/03/11 19:54:41;;;;;;;17.70;10.60;;;;;;;-0.06;79.30;97989.75;218601;1289;22551;-77
2023/03/11 19:59:46;;;;;;;16.10;10.40;;;;;;;-0.08;79.47;97995.08;218570;1295;22549;-76
2023/03/11 20:04:48;;;;;;;19.70;12.10;;;;;;;-0.10;79.48;98001.71;218466;1295;22556;-78
2023/03/11 20:09:50;;;;;;;19.80;13.10;;;;;;;-0.12;79.79;98010.54;218922;1296;25382;-78
2023/03/11 20:14:53;;;;;;;17.90;10.90;;;;;;;-0.14;79.50;98016.98;218794;1292;22577;-78
2023/03/11 20:19:56;;;;;;;17.20;11.60;;;;;;;-0.18;79.74;98015.41;218877;1297;22564;-75
2023/03/11 20:24:58;;;;;;;19.00;12.00;;;;;;;-0.20;79.76;98014.71;218388;1292;22542;-76
2023/03/11 20:30:01;;;;;;;19.60;12.40;;;;;;;-0.21;79.89;98017.92;218434;1297;22777;-77
2023/03/11 20:35:05;;;;;;;19.40;11.50;;;;;;;-0.21;80.14;98023.68;218386;1297;22644;-78
2023/03/11 20:40:13;;;;;;;15.90;9.90;;;;;;;-0.24;79.76;98024.09;217981;1297;24257;-76
2023/03/11 20:45:21;;;;;;;14.20;9.20;;;;;;;-0.26;79.93;98033.63;218500;1297;22606;-76
2023/03/11 20:50:28;;;;;;;14.40;9.80;;;;;;;-0.29;80.19;98039.08;218442;1297;22561;-78
2023/03/11 20:55:31;;;;;;;13.60;9.10;;;;;;;-0.32;80.15;98048.20;218685;1297;22612;-76
2023/03/11 21:00:39;;;;;;;15.90;10.20;;;;;;;-0.39;80.51;98064.51;218425;1284;22636;-77
2023/03/11 21:05:42;;;;;;;12.80;9.40;;;;;;;-0.47;80.31;98072.16;218681;1295;24263;-78
2023/03/11 21:10:46;;;;;;;16.10;10.90;;;;;;;-0.53;80.49;98071.52;218335;1296;22565;-76
2023/03/11 21:15:54;;;;;;;18.80;12.30;;;;;;;-0.57;80.41;98071.89;218706;1297;23955;-77
2023/03/11 21:21:00;;;;;;;16.30;10.40;;;;;;;-0.59;81.13;98080.16;218857;1295;22647;-77
2023/03/11 21:26:03;;;;;;;16.30;11.30;;;;;;;-0.60;81.08;98078.16;218642;1297;25387;-76
2023/03/11 21:31:10;;;;;;;16.20;9.60;;;;;;;-0.59;81.14;98087.10;218618;1297;24301;-76
2023/03/11 21:36:15;;;;;;;14.40;9.60;;;;;;;-0.59;81.17;98088.25;218468;1297;22562;-76
2023/03/11 21:41:25;;;;;;;13.70;9.40;;;;;;;-0.57;81.28;98086.39;218282;1297;25474;-76
2023/03/11 21:46:31;;;;;;;14.70;9.80;;;;;;;-0.55;81.27;98089.98;218720;1297;24433;-78
2023/03/11 21:51:33;;;;;;;9.90;8.20;;;;;;;-0.51;81.64;98094.17;218615;1296;24281;-77
2023/03/11 21:56:39;;;;;;;10.20;8.00;;;;;;;-0.49;81.55;98106.41;218751;1296;22588;-77
2023/03/11 22:01:41;;;;;;;13.30;9.80;;;;;;;-0.49;81.24;98109.71;218602;1295;24275;-77
2023/03/11 22:06:45;;;;;;;13.80;9.30;;;;;;;-0.49;81.51;98109.55;218776;1296;24250;-78
2023/03/11 22:11:50;;;;;;;15.40;10.50;;;;;;;-0.49;81.21;98117.36;219036;1288;23805;-77
2023/03/11 22:16:52;;;;;;;13.30;10.50;;;;;;;-0.48;81.49;98126.23;218624;1295;24203;-75
2023/03/11 22:21:55;;;;;;;13.60;10.20;;;;;;;-0.45;81.09;98132.89;218688;1295;22692;-77
2023/03/11 22:26:58;;;;;;;18.10;12.10;;;;;;;-0.44;81.47;98126.75;218952;1290;25420;-76
2023/03/11 22:32:00;;;;;;;16.80;12.20;;;;;;;-0.40;81.61;98132.30;218943;1295;23702;-77
2023/03/11 22:37:03;;;;;;;18.70;13.10;;;;;;;-0.39;81.11;98133.34;218546;1296;22700;-76
2023/03/11 22:42:07;;;;;;;15.70;11.60;;;;;;;-0.35;81.35;98137.39;218790;1296;22540;-75
2023/03/11 22:47:11;;;;;;;16.10;12.30;;;;;;;-0.34;81.39;98142.01;218935;1292;25334;-76
2023/03/11 22:52:17;;;;;;;16.00;11.40;;;;;;;-0.36;81.07;98139.85;218844;1292;25405;-76
2023/03/11 22:57:20;;;;;;;14.10;10.90;;;;;;;-0.38;81.03;98137.27;218719;1295;25366;-76
2023/03/11 23:02:22;;;;;;;16.40;11.60;;;;;;;-0.40;80.79;98140.73;218415;1295;22632;-77
2023/03/11 23:07:25;;;;;;;15.50;10.30;;;;;;;-0.40;81.20;98143.00;218732;1293;22567;-76
2023/03/11 23:12:28;;;;;;;14.80;10.80;;;;;;;-0.42;80.93;98144.72;218670;1292;23485;-77
2023/03/11 23:17:43;;;;;;;16.40;10.30;;;;;;;-0.45;80.90;98141.17;218451;1296;175223;-76
2023/03/11 23:22:46;;;;;;;16.90;10.60;;;;;;;-0.48;80.84;98142.16;218848;1296;26736;-75
2023/03/11 23:27:57;;;;;;;18.40;11.00;;;;;;;-0.54;80.73;98146.97;218566;1296;22732;-75
2023/03/11 23:33:01;;;;;;;16.20;11.50;;;;;;;-0.61;80.70;98155.07;218590;1296;22602;-76
2023/03/11 23:38:04;;;;;;;18.50;11.50;;;;;;;-0.71;80.33;98158.37;218734;1293;25679;-77
2023/03/11 23:43:07;;;;;;;21.40;13.10;;;;;;;-0.82;80.62;98161.53;218750;1296;22639;-77
2023/03/11 23:48:09;;;;;;;21.60;14.20;;;;;;;-0.92;80.60;98171.27;218688;1293;24319;-76
2023/03/11 23:53:13;;;;;;;28.90;16.00;;;;;;;-0.89;80.47;98176.98;218222;1296;25432;-75
2023/03/11 23:58:18;;;;;;;28.10;15.90;;;;;;;-0.85;80.74;98176.84;218030;1292;24374;-75
